createdAt,value
2018-11-21T00:00:13.955Z,27.87
2018-11-21T00:02:43.997Z,27.27
2018-11-21T00:05:12.978Z,27.63
2018-11-21T00:07:41.979Z,26.30
2018-11-21T00:10:12.233Z,26.80
2018-11-21T00:12:43.616Z,28.03
2018-11-21T00:15:12.730Z,27.80
2018-11-21T00:17:41.723Z,26.03
2018-11-21T00:20:11.244Z,26.13
2018-11-21T00:22:40.308Z,26.97
2018-11-21T00:25:09.555Z,27.53
2018-11-21T00:27:38.662Z,27.53
2018-11-21T00:30:09.740Z,30.10
2018-11-21T00:32:38.726Z,27.60
2018-11-21T00:35:08.718Z,28.80
2018-11-21T00:37:38.889Z,26.07
2018-11-21T00:40:12.662Z,26.60
2018-11-21T00:42:46.736Z,28.27
2018-11-21T00:45:11.108Z,26.17
2018-11-21T00:47:40.360Z,26.90
2018-11-21T00:50:09.398Z,27.37
2018-11-21T00:52:38.514Z,26.93
2018-11-21T00:55:07.832Z,28.17
2018-11-21T00:57:36.834Z,26.57
2018-11-21T01:00:08.293Z,27.07
2018-11-21T01:02:37.345Z,28.07
2018-11-21T01:05:06.978Z,26.43
2018-11-21T01:07:35.982Z,26.83
2018-11-21T01:10:05.046Z,27.90
2018-11-21T01:12:34.090Z,28.77
2018-11-21T01:15:03.134Z,26.33
2018-11-21T01:17:32.158Z,28.53
2018-11-21T01:20:01.162Z,27.57
2018-11-21T01:22:30.161Z,27.77
2018-11-21T01:24:59.130Z,28.20
2018-11-21T01:27:28.175Z,27.77
2018-11-21T01:29:57.268Z,28.87
2018-11-21T01:32:26.262Z,27.57
2018-11-21T01:34:55.344Z,27.40
2018-11-21T01:37:24.432Z,27.77
2018-11-21T01:39:53.473Z,27.33
2018-11-21T01:42:22.527Z,28.83
2018-11-21T01:44:51.543Z,28.40
2018-11-21T01:47:20.619Z,27.67
2018-11-21T01:49:49.588Z,27.40
2018-11-21T01:52:18.623Z,28.07
2018-11-21T01:54:47.741Z,28.53
2018-11-21T01:57:16.801Z,26.73
2018-11-21T01:59:45.798Z,27.50
2018-11-21T02:02:14.909Z,28.37
2018-11-21T02:04:43.943Z,27.67
2018-11-21T02:07:13.003Z,26.70
2018-11-21T02:09:42.100Z,27.77
2018-11-21T02:12:11.178Z,27.37
2018-11-21T02:14:40.255Z,28.70
2018-11-21T02:17:09.361Z,28.93
2018-11-21T02:19:38.346Z,27.90
2018-11-21T02:22:07.359Z,27.97
2018-11-21T02:24:36.483Z,27.57
2018-11-21T02:27:05.607Z,27.40
2018-11-21T02:29:34.735Z,28.17
2018-11-21T02:32:04.134Z,29.53
2018-11-21T02:34:33.193Z,28.03
2018-11-21T02:37:02.207Z,28.03
2018-11-21T02:39:31.185Z,27.80
2018-11-21T02:42:00.195Z,27.80
2018-11-21T02:44:29.204Z,28.10
2018-11-21T02:46:58.315Z,27.83
2018-11-21T02:49:27.321Z,29.73
2018-11-21T02:51:56.330Z,28.27
2018-11-21T02:54:25.375Z,28.97
2018-11-21T02:57:38.125Z,27.77
2018-11-21T03:00:18.707Z,27.10
2018-11-21T03:02:47.782Z,27.93
2018-11-21T03:05:17.079Z,29.63
2018-11-21T03:07:52.952Z,27.47
2018-11-21T03:10:22.873Z,28.17
2018-11-21T03:12:51.912Z,26.93
2018-11-21T03:15:20.981Z,28.83
2018-11-21T03:17:49.999Z,29.03
2018-11-21T03:20:19.161Z,28.27
2018-11-21T03:22:48.288Z,28.80
2018-11-21T03:25:17.395Z,30.17
2018-11-21T03:27:46.477Z,29.17
2018-11-21T03:30:15.483Z,28.23
2018-11-21T03:32:44.664Z,29.13
2018-11-21T03:35:13.608Z,28.17
2018-11-21T03:37:42.707Z,29.87
2018-11-21T03:40:12.445Z,28.43
2018-11-21T03:42:41.639Z,29.27
2018-11-21T03:45:11.684Z,27.80
2018-11-21T03:47:41.007Z,28.50
2018-11-21T03:50:11.262Z,27.83
2018-11-21T03:52:40.270Z,28.10
2018-11-21T03:55:09.810Z,28.83
2018-11-21T03:57:38.971Z,29.37
2018-11-21T04:00:09.685Z,28.27
2018-11-21T04:02:38.821Z,28.50
2018-11-21T04:05:08.276Z,28.70
2018-11-21T04:07:37.494Z,29.60
2018-11-21T04:10:09.536Z,27.67
2018-11-21T04:12:38.695Z,29.53
2018-11-21T04:15:09.312Z,29.60
2018-11-21T04:17:38.519Z,29.73
2018-11-21T04:20:07.682Z,29.40
2018-11-21T04:22:36.958Z,29.00
2018-11-21T04:25:06.788Z,28.23
2018-11-21T04:27:35.827Z,29.53
2018-11-21T04:30:06.570Z,28.33
2018-11-21T04:32:35.526Z,29.77
2018-11-21T04:35:04.946Z,30.53
2018-11-21T04:37:33.930Z,27.50
2018-11-21T04:40:03.000Z,27.87
2018-11-21T04:42:32.057Z,28.57
2018-11-21T04:45:01.051Z,28.03
2018-11-21T04:47:30.122Z,28.63
2018-11-21T04:49:59.253Z,29.27
2018-11-21T04:52:28.227Z,28.90
2018-11-21T04:54:57.305Z,29.37
2018-11-21T04:57:26.336Z,29.13
2018-11-21T04:59:55.378Z,29.47
2018-11-21T05:02:24.454Z,27.37
2018-11-21T05:04:53.494Z,30.43
2018-11-21T05:07:22.604Z,28.50
2018-11-21T05:09:51.596Z,29.67
2018-11-21T05:12:20.703Z,28.30
2018-11-21T05:14:49.698Z,29.73
2018-11-21T05:17:18.685Z,29.50
2018-11-21T05:19:47.697Z,28.27
2018-11-21T05:22:16.680Z,30.30
2018-11-21T05:24:45.769Z,27.73
2018-11-21T05:27:14.844Z,28.53
2018-11-21T05:29:44.057Z,29.80
2018-11-21T05:32:13.165Z,28.73
2018-11-21T05:34:42.221Z,29.07
2018-11-21T05:37:11.345Z,31.13
2018-11-21T05:39:40.485Z,30.50
2018-11-21T05:42:09.616Z,32.90
2018-11-21T05:44:38.684Z,32.33
2018-11-21T05:47:07.783Z,33.77
2018-11-21T05:49:36.921Z,33.40
2018-11-21T05:52:06.038Z,31.10
2018-11-21T05:54:35.022Z,35.97
2018-11-21T05:57:04.100Z,32.80
2018-11-21T05:59:33.194Z,31.90
2018-11-21T06:02:02.268Z,32.83
2018-11-21T06:04:31.364Z,32.60
2018-11-21T06:07:00.493Z,33.37
2018-11-21T06:09:29.521Z,32.90
2018-11-21T06:12:04.141Z,32.27
2018-11-21T06:14:27.770Z,31.73
2018-11-21T06:16:56.873Z,31.23
2018-11-21T06:19:25.887Z,33.10
2018-11-21T06:21:54.952Z,32.53
2018-11-21T06:24:26.021Z,31.97
2018-11-21T06:26:56.888Z,33.37
2018-11-21T06:29:26.021Z,33.83
2018-11-21T06:31:55.061Z,32.03
2018-11-21T06:34:24.071Z,33.40
2018-11-21T06:36:53.182Z,33.37
2018-11-21T06:39:22.589Z,31.33
2018-11-21T06:41:51.725Z,34.47
2018-11-21T06:44:20.725Z,34.13
2018-11-21T06:46:49.807Z,32.90
2018-11-21T06:49:18.846Z,38.77
2018-11-21T06:51:47.954Z,35.27
2018-11-21T06:54:17.015Z,34.53
2018-11-21T06:56:46.048Z,34.97
2018-11-21T06:59:15.131Z,35.40
2018-11-21T07:01:44.222Z,35.27
2018-11-21T07:04:13.332Z,33.97
2018-11-21T07:06:42.479Z,34.17
2018-11-21T07:09:11.887Z,34.47
2018-11-21T07:11:40.901Z,35.23
2018-11-21T07:14:09.990Z,34.50
2018-11-21T07:16:39.811Z,37.03
2018-11-21T07:19:08.924Z,35.80
2018-11-21T07:21:37.986Z,36.27
2018-11-21T07:24:07.191Z,34.83
2018-11-21T07:26:36.280Z,32.60
2018-11-21T07:29:05.835Z,35.57
2018-11-21T07:31:35.081Z,36.53
2018-11-21T07:34:04.127Z,34.70
2018-11-21T07:36:33.602Z,37.13
2018-11-21T07:39:02.741Z,36.13
2018-11-21T07:41:31.772Z,37.80
2018-11-21T07:44:00.772Z,37.50
2018-11-21T07:46:29.904Z,36.47
2018-11-21T07:48:58.911Z,36.63
2018-11-21T07:51:27.990Z,34.13
2018-11-21T07:53:57.013Z,35.47
2018-11-21T07:57:17.088Z,35.63
2018-11-21T08:00:22.651Z,33.47
2018-11-21T08:02:51.678Z,30.97
2018-11-21T08:05:25.314Z,32.57
2018-11-21T08:08:03.551Z,31.47
2018-11-21T08:10:49.706Z,32.30
2018-11-21T08:13:36.423Z,33.97
2018-11-21T08:16:23.581Z,32.83
2018-11-21T08:19:14.712Z,32.10
2018-11-21T08:22:14.796Z,33.27
2018-11-21T08:25:05.770Z,32.47
2018-11-21T08:27:52.616Z,33.17
2018-11-21T08:30:21.714Z,32.03
2018-11-21T08:32:50.778Z,33.33
2018-11-21T08:35:19.894Z,34.07
2018-11-21T08:37:48.957Z,32.87
2018-11-21T08:40:18.022Z,30.93
2018-11-21T08:42:47.039Z,35.27
2018-11-21T08:45:16.060Z,33.90
2018-11-21T08:47:45.142Z,31.90
2018-11-21T08:50:14.210Z,30.77
2018-11-21T08:52:43.236Z,32.67
2018-11-21T08:55:12.864Z,31.10
2018-11-21T08:57:41.954Z,30.20
2018-11-21T09:00:12.434Z,32.23
2018-11-21T09:02:41.602Z,31.50
2018-11-21T09:05:11.595Z,32.27
2018-11-21T09:07:41.560Z,31.83
2018-11-21T09:10:12.406Z,29.80
2018-11-21T09:12:41.748Z,32.40
2018-11-21T09:15:13.306Z,32.53
2018-11-21T09:17:42.927Z,31.10
2018-11-21T09:20:12.337Z,33.37
2018-11-21T09:22:41.393Z,32.33
2018-11-21T09:25:11.069Z,31.73
2018-11-21T09:27:40.722Z,30.87
2018-11-21T09:30:11.259Z,31.03
2018-11-21T09:32:40.455Z,35.23
2018-11-21T09:35:11.033Z,32.20
2018-11-21T09:37:40.083Z,31.37
2018-11-21T09:40:10.659Z,32.07
2018-11-21T09:42:40.775Z,32.20
2018-11-21T09:45:11.459Z,31.23
2018-11-21T09:47:40.562Z,31.73
2018-11-21T09:50:11.951Z,33.30
2018-11-21T09:52:41.113Z,32.37
2018-11-21T09:55:10.233Z,31.50
2018-11-21T09:57:39.426Z,29.77
2018-11-21T10:00:46.607Z,33.80
2018-11-21T10:03:17.518Z,33.83
2018-11-21T10:05:48.961Z,33.90
2018-11-21T10:08:31.497Z,34.07
2018-11-21T10:11:00.498Z,36.80
2018-11-21T10:13:29.737Z,36.57
2018-11-21T10:16:01.005Z,36.67
2018-11-21T10:18:27.934Z,33.93
2018-11-21T10:20:57.029Z,34.53
2018-11-21T10:23:26.099Z,36.13
2018-11-21T10:25:55.111Z,34.80
2018-11-21T10:28:24.175Z,34.80
2018-11-21T10:30:53.163Z,34.93
2018-11-21T10:33:22.140Z,34.07
2018-11-21T10:35:51.135Z,35.33
2018-11-21T10:38:20.150Z,35.27
2018-11-21T10:40:49.244Z,34.07
2018-11-21T10:43:18.235Z,34.40
2018-11-21T10:45:47.276Z,36.17
2018-11-21T10:48:16.246Z,36.07
2018-11-21T10:50:45.242Z,34.33
2018-11-21T10:53:14.374Z,34.73
2018-11-21T10:55:43.358Z,35.33
2018-11-21T10:58:12.460Z,35.50
2018-11-21T11:00:59.210Z,34.03
2018-11-21T11:03:33.455Z,34.20
2018-11-21T11:06:33.686Z,34.07
2018-11-21T11:09:20.382Z,32.87
2018-11-21T11:12:01.808Z,34.83
2018-11-21T11:14:48.424Z,34.33
2018-11-21T11:17:36.610Z,32.97
2018-11-21T11:20:26.183Z,31.87
2018-11-21T11:23:13.007Z,34.33
2018-11-21T11:26:01.292Z,33.13
2018-11-21T11:28:58.474Z,32.53
2018-11-21T11:31:38.714Z,31.77
2018-11-21T11:34:23.006Z,32.20
2018-11-21T11:37:26.150Z,34.00
2018-11-21T11:40:12.979Z,32.10
2018-11-21T11:43:04.078Z,32.20
2018-11-21T11:45:52.282Z,32.27
2018-11-21T11:48:39.680Z,32.70
2018-11-21T11:51:42.953Z,32.20
2018-11-21T11:54:33.871Z,32.43
2018-11-21T11:57:31.046Z,32.23
2018-11-21T12:03:06.169Z,32.57
2018-11-21T12:06:03.337Z,32.17
2018-11-21T12:08:49.163Z,31.63
2018-11-21T12:11:35.823Z,32.33
2018-11-21T12:14:39.123Z,31.77
2018-11-21T12:17:26.071Z,31.63
2018-11-21T12:20:26.115Z,31.73
2018-11-21T12:23:29.234Z,31.03
2018-11-21T12:26:15.903Z,33.67
2018-11-21T12:29:02.774Z,31.80
2018-11-21T12:31:49.376Z,31.73
2018-11-21T12:34:35.825Z,32.23
2018-11-21T12:37:42.081Z,31.33
2018-11-21T12:40:27.741Z,31.93
2018-11-21T12:43:14.655Z,32.07
2018-11-21T12:46:20.894Z,33.37
2018-11-21T12:48:59.311Z,31.80
2018-11-21T12:51:56.316Z,30.27
2018-11-21T12:54:37.012Z,31.87
2018-11-21T12:57:23.650Z,31.60
2018-11-21T13:00:11.548Z,30.77
2018-11-21T13:03:05.559Z,31.03
2018-11-21T13:05:53.286Z,30.83
2018-11-21T13:08:31.188Z,29.27
2018-11-21T13:11:28.442Z,30.63
2018-11-21T13:14:14.808Z,30.70
2018-11-21T13:16:55.237Z,30.20
2018-11-21T13:19:45.275Z,30.37
2018-11-21T13:22:31.810Z,30.60
2018-11-21T13:25:18.819Z,32.27
2018-11-21T13:28:25.185Z,30.83
2018-11-21T13:31:10.519Z,30.03
2018-11-21T13:33:52.338Z,30.40
2018-11-21T13:36:38.954Z,31.80
2018-11-21T13:39:30.349Z,30.43
2018-11-21T13:42:24.521Z,30.60
2018-11-21T13:44:58.900Z,29.93
2018-11-21T13:47:45.514Z,33.00
2018-11-21T13:50:34.248Z,31.67
2018-11-21T13:53:15.924Z,31.73
2018-11-21T13:55:45.169Z,30.97
2018-11-21T13:58:14.188Z,31.43
2018-11-21T14:00:43.196Z,30.87
2018-11-21T14:03:12.250Z,30.57
2018-11-21T14:05:41.306Z,30.37
2018-11-21T14:08:10.442Z,31.37
2018-11-21T14:10:39.522Z,32.50
2018-11-21T14:13:08.546Z,31.93
2018-11-21T14:15:37.528Z,31.30
2018-11-21T14:18:06.694Z,31.80
2018-11-21T14:20:35.812Z,33.17
2018-11-21T14:23:05.121Z,31.57
2018-11-21T14:25:34.183Z,32.20
2018-11-21T14:28:03.216Z,31.70
2018-11-21T14:30:32.306Z,32.87
2018-11-21T14:33:01.290Z,32.43
2018-11-21T14:35:30.356Z,32.17
2018-11-21T14:37:59.338Z,32.43
2018-11-21T14:40:28.457Z,32.67
2018-11-21T14:42:57.531Z,33.07
2018-11-21T14:45:26.542Z,32.47
2018-11-21T14:47:55.678Z,32.97
2018-11-21T14:50:29.672Z,32.57
2018-11-21T14:52:58.780Z,32.20
2018-11-21T14:55:27.816Z,33.43
2018-11-21T14:57:56.979Z,33.53
2018-11-21T15:00:25.973Z,32.23
2018-11-21T15:02:55.016Z,32.13
2018-11-21T15:05:24.133Z,31.67
2018-11-21T15:07:53.433Z,33.60
2018-11-21T15:10:22.539Z,33.90
2018-11-21T15:12:51.567Z,33.97
2018-11-21T15:15:21.268Z,33.00
2018-11-21T15:17:50.297Z,33.33
2018-11-21T15:20:21.371Z,33.87
2018-11-21T15:22:50.404Z,36.40
2018-11-21T15:25:20.751Z,37.67
2018-11-21T15:27:49.945Z,36.80
2018-11-21T15:30:21.675Z,34.17
2018-11-21T15:32:50.633Z,37.33
2018-11-21T15:35:19.883Z,35.03
2018-11-21T15:37:49.031Z,36.57
2018-11-21T15:40:19.719Z,35.70
2018-11-21T15:42:48.801Z,36.20
2018-11-21T15:45:19.192Z,35.83
2018-11-21T15:47:50.693Z,35.00
2018-11-21T15:50:19.665Z,35.53
2018-11-21T15:52:53.131Z,35.83
2018-11-21T15:55:18.243Z,35.23
2018-11-21T15:57:48.371Z,37.93
2018-11-21T16:00:22.925Z,36.00
2018-11-21T16:02:53.811Z,36.43
2018-11-21T16:05:23.005Z,37.27
2018-11-21T16:07:52.235Z,35.83
2018-11-21T16:10:23.191Z,37.57
2018-11-21T16:12:52.223Z,36.33
2018-11-21T16:15:23.936Z,37.33
2018-11-21T16:17:53.073Z,37.87
2018-11-21T16:20:22.144Z,38.47
2018-11-21T16:22:51.343Z,37.47
2018-11-21T16:25:21.436Z,38.00
2018-11-21T16:27:50.426Z,35.30
2018-11-21T16:30:21.230Z,34.17
2018-11-21T16:32:50.301Z,34.90
2018-11-21T16:35:19.382Z,34.33
2018-11-21T16:37:48.479Z,34.03
2018-11-21T16:40:22.019Z,36.03
2018-11-21T16:42:51.619Z,35.47
2018-11-21T16:45:22.726Z,34.10
2018-11-21T16:47:51.754Z,35.90
2018-11-21T16:50:21.037Z,34.87
2018-11-21T16:52:50.155Z,35.27
2018-11-21T16:55:20.599Z,36.20
2018-11-21T16:57:50.044Z,34.93
2018-11-21T17:00:20.542Z,34.33
2018-11-21T17:02:49.588Z,34.40
2018-11-21T17:05:19.716Z,34.17
2018-11-21T17:07:48.810Z,33.63
2018-11-21T17:10:19.494Z,37.00
2018-11-21T17:12:48.982Z,34.33
2018-11-21T17:15:19.432Z,34.87
2018-11-21T17:17:48.646Z,34.53
2018-11-21T17:20:19.450Z,36.00
2018-11-21T17:22:49.775Z,34.70
2018-11-21T17:25:20.081Z,34.90
2018-11-21T17:27:49.396Z,35.50
2018-11-21T17:30:19.570Z,35.27
2018-11-21T17:32:48.814Z,35.83
2018-11-21T17:35:18.702Z,34.33
2018-11-21T17:37:48.062Z,34.77
2018-11-21T17:40:19.912Z,34.23
2018-11-21T17:42:48.986Z,36.10
2018-11-21T17:45:18.563Z,35.23
2018-11-21T17:47:47.617Z,34.23
2018-11-21T17:50:18.130Z,35.80
2018-11-21T17:52:47.795Z,34.73
2018-11-21T17:55:18.819Z,35.07
2018-11-21T17:57:47.894Z,34.87
2018-11-21T18:00:18.988Z,34.83
2018-11-21T18:02:47.985Z,36.80
2018-11-21T18:05:18.564Z,34.87
2018-11-21T18:07:47.763Z,36.40
2018-11-21T18:10:18.130Z,35.30
2018-11-21T18:12:47.609Z,34.87
2018-11-21T18:15:17.326Z,36.03
2018-11-21T18:17:47.371Z,33.33
2018-11-21T18:20:16.773Z,36.03
2018-11-21T18:22:46.522Z,36.00
2018-11-21T18:25:17.143Z,35.90
2018-11-21T18:27:46.321Z,34.47
2018-11-21T18:30:17.007Z,34.87
2018-11-21T18:32:46.529Z,35.57
2018-11-21T18:35:17.099Z,34.07
2018-11-21T18:37:46.497Z,34.23
2018-11-21T18:40:23.215Z,34.37
2018-11-21T18:42:52.416Z,34.77
